createdAt,value
2023-01-09T00:10:20.081Z,2.8
2023-01-09T00:25:32.501Z,2.5
2023-01-09T00:40:41.821Z,2.6
2023-01-09T00:55:51.535Z,2.4
2023-01-09T01:11:00.981Z,2.4
2023-01-09T01:26:13.618Z,2.1
2023-01-09T01:41:23.678Z,3.2
2023-01-09T01:56:33.008Z,3.1
2023-01-09T02:11:42.731Z,3.2
2023-01-09T02:26:52.260Z,3.6
2023-01-09T02:42:02.211Z,6.1
2023-01-09T02:57:12.576Z,4.8
2023-01-09T03:12:22.069Z,2.4
2023-01-09T03:27:30.557Z,1.8
2023-01-09T03:42:40.301Z,3
2023-01-09T03:57:50.259Z,1.6
2023-01-09T04:12:59.332Z,1.4
2023-01-09T04:28:11.851Z,1.6
2023-01-09T04:43:21.409Z,1.9
2023-01-09T04:58:30.597Z,0.9
2023-01-09T05:13:39.989Z,1
2023-01-09T05:28:49.506Z,1.2
2023-01-09T05:43:59.143Z,1.6
2023-01-09T05:59:10.551Z,1.7
2023-01-09T06:14:20.028Z,3
2023-01-09T06:29:30.181Z,4.4
2023-01-09T06:44:40.017Z,6.4
2023-01-09T06:59:49.568Z,5.8
2023-01-09T07:14:59.500Z,9.3
2023-01-09T07:30:08.764Z,8.6
2023-01-09T07:45:20.513Z,10.3
2023-01-09T08:00:33.411Z,12.8
2023-01-09T08:15:46.495Z,14
2023-01-09T08:30:56.698Z,13.7
2023-01-09T08:46:06.869Z,16.7
2023-01-09T09:01:23.550Z,18.4
2023-01-09T09:16:33.198Z,13.4
2023-01-09T09:31:42.462Z,6.6
2023-01-09T09:46:52.701Z,7.7
2023-01-09T10:02:06.122Z,5
2023-01-09T10:17:16.210Z,4.2
2023-01-09T10:32:26.919Z,3
2023-01-09T10:47:39.701Z,6.6
2023-01-09T11:02:49.739Z,4
2023-01-09T11:17:59.391Z,5.5
2023-01-09T11:33:10.242Z,4.2
2023-01-09T11:48:20.084Z,5.8
2023-01-09T12:03:29.608Z,4.9
2023-01-09T12:18:41.077Z,2.3
2023-01-09T12:33:50.704Z,4.4
2023-01-09T12:49:00.564Z,1.4
2023-01-09T13:04:10.338Z,3.3
2023-01-09T13:19:21.157Z,3.2
2023-01-09T13:34:30.965Z,5.5
2023-01-09T13:49:40.895Z,1.7
2023-01-09T14:04:50.604Z,1.9
2023-01-09T14:20:00.539Z,2.5
2023-01-09T14:35:09.850Z,2.6
2023-01-09T14:50:21.093Z,4.2
2023-01-09T15:05:30.728Z,4.9
2023-01-09T15:20:40.545Z,2.3
2023-01-09T15:35:49.987Z,4.6
2023-01-09T15:50:59.493Z,3.1
2023-01-09T16:06:09.284Z,3
2023-01-09T16:21:18.741Z,5.6
2023-01-09T16:36:27.966Z,7.4
2023-01-09T16:51:37.269Z,2.9
2023-01-09T17:06:46.796Z,2.7
2023-01-09T17:21:56.500Z,3.2
2023-01-09T17:37:06.015Z,4.7
2023-01-09T17:52:15.671Z,4.3
2023-01-09T18:07:24.525Z,2.8
2023-01-09T18:22:33.908Z,4.6
2023-01-09T18:37:43.334Z,4.9
2023-01-09T18:52:52.833Z,7.9
2023-01-09T19:08:02.594Z,17.4
2023-01-09T19:23:13.025Z,9.4
2023-01-09T19:38:22.906Z,5.2
2023-01-09T19:53:32.935Z,3.2
2023-01-09T20:08:41.433Z,6.5
2023-01-09T20:23:51.066Z,10.2
2023-01-09T20:39:00.757Z,12
2023-01-09T20:54:10.357Z,16.2
2023-01-09T21:09:21.723Z,9.5
2023-01-09T21:24:33.693Z,15.4
2023-01-09T21:39:43.217Z,18.7
2023-01-09T21:54:52.462Z,23.2
2023-01-09T22:10:02.127Z,19.4
2023-01-09T22:25:11.618Z,21.3
2023-01-09T22:40:24.159Z,15.2
2023-01-09T22:55:33.404Z,16.1
2023-01-09T23:10:43.059Z,19.4
2023-01-09T23:25:52.781Z,21.6
2023-01-09T23:41:02.447Z,21.8
2023-01-09T23:56:12.431Z,21.2
